Flight Track Log - Related Links

Times and Time Zones

All times are in EDT time to prevent confusion due to time zone crossing. See the JBU233 flight status page for this flight to view local times or setup timezone preferences in your user account.

Time Position Orientation Groundspeed Altitude Reporting Facility
EDT Latitude Longitude Course Direction KTS MPH feet Rate Location/Type
Fri 06:08:06 AM 44.3131 -73.1769 183° South 257 296 6,700  Level Boston Center
Fri 06:09:00 AM 44.1312 -73.2758 195° South  Level FlightAware Approximate
Fri 06:09:03 AM 44.2400 -73.2081 197° South 290 334 10,200  Level Boston Center
Fri 06:10:00 AM 44.0467 -73.3067 194° South  Level FlightAware Approximate
Fri 06:10:05 AM 44.1481 -73.2444 196° South 329 379 11,900  Level Boston Center
Fri 06:11:00 AM 43.9618 -73.3350 193° South  Level FlightAware Approximate
Fri 06:11:04 AM 44.0456 -73.2864 196° South 373 429 14,900  Level Boston Center
Fri 06:12:00 AM 43.9021 -73.3434 190° South  Level Estimated
Fri 06:12:04 AM 43.9411 -73.3311 197° South 393 452 17,400  Level Boston Center
Fri 06:13:00 AM 43.8421 -73.3476 183° South  Level FlightAware Approximate
Fri 06:13:04 AM 43.8325 -73.3756 196° South 400 460 19,400  Level Boston Center
Fri 06:14:05 AM 43.7175 -73.4197 196° South 414 476 21,500 1,950 Climbing Boston Center
Fri 06:15:04 AM 43.6003 -73.4664 196° South 426 490 23,300 1,664 Climbing Boston Center
Fri 06:16:04 AM 43.4792 -73.5158 197° South 438 504 24,800 1,587 Climbing Boston Center
Fri 06:17:05 AM 43.3556 -73.5650 196° South 457 526 26,500 1,475 Climbing Boston Center
Fri 06:18:06 AM 43.2258 -73.6142 195° South 469 540 27,800 763 Climbing Boston Center
Fri 06:19:03 AM 43.0836 -73.6739 197° South 481 554 28,000 101 Climbing Boston Center
Fri 06:20:05 AM 42.9517 -73.7278 197° South 487 560 28,000  Level Boston Center
Fri 06:21:05 AM 42.8181 -73.7564 189° South 487 560 28,000  Level Boston Center
Fri 06:22:03 AM 42.6803 -73.7647 183° South 494 568 28,000  Level Boston Center
Fri 06:23:06 AM 42.5594 -73.7706 182° South 500 575 28,000  Level Boston Center
Fri 06:24:04 AM 42.4217 -73.7817 183° South 500 575 28,000  Level Boston Center
Fri 06:25:04 AM 42.2797 -73.7897 182° South 500 575 28,000  Level Boston Center
Fri 06:26:06 AM 42.1422 -73.7981 183° South 500 575 28,000  Level Boston Center
Fri 06:27:06 AM 42.0044 -73.8092 183° South 500 575 28,000  Level Boston Center
Fri 06:28:04 AM 41.8667 -73.8311 187° South 500 575 28,000 -1,515 Level Boston Center
Fri 06:30:32 AM 41.5469 -73.9864 200° South 470 541 22,800 -2,163 Descending New York Center
Fri 06:31:32 AM 41.4328 -74.0419 200° South 448 516 20,500 -1,400 Descending New York Center
Fri 06:32:32 AM 41.3217 -74.0750 193° South 431 496 20,000 -250 Descending New York Center
Fri 06:33:32 AM 41.2067 -74.0914 186° South 419 482 20,000  Level New York Center
Fri 06:34:32 AM 41.0894 -74.1106 187° South 419 482 20,000 -50 Level New York Center
Fri 06:35:32 AM 40.9764 -74.1269 186° South 419 482 19,900 -500 Descending New York Center
Fri 06:36:32 AM 40.8839 -74.0839 161° South 380 437 19,000 -1,050 Descending New York Center
Fri 06:37:32 AM 40.7867 -74.0572 168° South 368 423 17,800 -1,550 Descending New York Center
Fri 06:38:32 AM 40.7019 -74.0311 167° South 363 418 15,900 -2,000 Descending New York Center
Fri 06:39:32 AM 40.6031 -73.9964 165° South 345 397 13,800 -1,338 Descending New York Center
Fri 06:40:42 AM 40.5000 -73.9667 168° South 325 374 13,000 -610 Descending New York TRACON
Fri 06:41:30 AM 40.4333 -73.9333 159° South 286 329 12,600 -842 Descending New York TRACON
Fri 06:42:36 AM 40.3667 -73.8833 150° Southeast 272 313 11,400 -1,200 Descending New York TRACON
Fri 06:43:30 AM 40.3333 -73.8167 123° Southeast 257 296 10,200 -1,421 Descending New York TRACON
Fri 06:44:30 AM 40.3167 -73.7333 105° East 259 298 8,700 -1,158 Descending New York TRACON
Fri 06:45:24 AM 40.3667 -73.6833 37° Northeast 230 265 8,000 -579 Descending New York TRACON
Fri 06:46:24 AM 40.4167 -73.6167 45° Northeast 230 265 7,600 -500 Descending New York TRACON
Fri 06:47:24 AM 40.4667 -73.5667 37° Northeast 232 267 7,000 -368 Descending New York TRACON
Fri 06:48:18 AM 40.5000 -73.5167 49° Northeast 232 267 6,900 -667 Descending New York TRACON
Fri 06:49:12 AM 40.5500 -73.4667 37° Northeast 229 264 5,800 -1,000 Descending New York TRACON
Fri 06:50:12 AM 40.6000 -73.4167 37° Northeast 225 259 5,000 -421 Descending New York TRACON
Fri 06:51:06 AM 40.6500 -73.4000 14° North 231 266 5,000 -474 Level New York TRACON
Fri 06:52:06 AM 40.7000 -73.4333 333° Northwest 212 244 4,100 -952 Descending New York TRACON
Fri 06:53:12 AM 40.7500 -73.4833 323° Northwest 209 241 3,000 -750 Descending New York TRACON
Fri 06:54:06 AM 40.7833 -73.5333 311° West 206 237 2,600 -526 Descending New York TRACON
Fri 06:55:06 AM 40.8167 -73.6000 303° West 213 245 2,000 -316 Descending New York TRACON
Fri 06:56:00 AM 40.7833 -73.6500 229° Southwest 199 229 2,000  Level New York TRACON
Fri 06:57:00 AM 40.7500 -73.6833 217° Southwest 174 200 2,000 -300 Level New York TRACON
Fri 06:58:00 AM 40.7000 -73.7000 194° South 135 155 1,400 -600 Descending New York TRACON
Fri 06:59:00 AM 40.6833 -73.7333 237° Southwest 124 143 800 -600 Descending New York TRACON

Login

Don't have an account? Register now (free) for customized features, flight alerts, and more!